< Typhoon 200714 2007 Season Typhoon 200716 >
Typhoon 200715 (KROSA)
General InformationTrack Information on Google MapsDetailed Wind InformationAccess Analytics MapList of All Images || NewsDisaster Info.WeblogTrackbackTyphoon FrontResourceGoogle EarthGE AnimationAtom FeedGeoJSON
Detalied Best Track (Time Zone = UTC)
Year Month Day Hour Lat. Long. Pressure (hPa) Wind (kt) Class Image Chart
2007 10 1 06 17.6 130.6 998 0 2 Image Chart
2007 10 1 12 17.3 130.7 998 0 2 Image Chart
2007 10 1 18 17.0 130.8 998 35 3 Image Chart
2007 10 2 00 16.7 131.1 996 40 3 Image Chart
2007 10 2 06 16.5 131.5 990 55 4 Image Chart
2007 10 2 12 16.8 131.3 985 55 4 Image Chart
2007 10 2 18 16.9 130.8 975 55 4 Image Chart
2007 10 3 00 17.0 130.3 965 70 5 Image Chart
2007 10 3 06 17.2 129.9 960 75 5 Image Chart
2007 10 3 12 17.7 129.4 955 80 5 Image Chart
2007 10 3 18 18.3 128.9 945 85 5 Image Chart
2007 10 4 00 18.5 128.0 940 90 5 Image Chart
2007 10 4 06 19.2 127.4 940 90 5 Image Chart
2007 10 4 12 19.9 126.7 935 90 5 Image Chart
2007 10 4 18 20.2 125.8 930 95 5 Image Chart
2007 10 5 00 20.4 125.3 925 100 5 Image Chart
2007 10 5 06 21.0 125.0 925 105 5 Image Chart
2007 10 5 09 21.4 124.8 925 105 5 Image Chart
2007 10 5 12 21.8 124.8 925 105 5 Image Chart
2007 10 5 15 22.5 124.5 925 105 5 Image Chart
2007 10 5 18 22.8 124.1 925 105 5 Image Chart
2007 10 5 21 23.3 123.8 925 105 5 Image Chart
2007 10 6 00 23.7 123.5 925 105 5 Image Chart
2007 10 6 03 24.4 122.9 925 105 5 Image Chart
2007 10 6 06 24.6 122.2 935 95 5 Image Chart
2007 10 6 09 23.9 121.7 950 85 5 Image Chart
2007 10 6 12 24.0 122.0 960 75 5 Image Chart
2007 10 6 15 25.1 121.9 965 70 5 Image Chart
2007 10 6 18 25.5 121.1 965 65 5 Image Chart
2007 10 6 21 25.7 120.7 965 65 5 Image Chart
2007 10 7 00 25.8 120.6 970 60 4 Image Chart
2007 10 7 06 26.8 120.4 985 55 4 Image Chart
2007 10 7 12 27.4 120.2 990 45 3 Image Chart
2007 10 7 18 27.6 120.1 994 35 3 Image Chart
2007 10 8 00 27.8 120.1 1000 0 2 Image Chart
2007 10 8 06 28.3 121.1 1002 0 6 Image Chart
2007 10 8 12 28.7 122.3 1006 0 6 Image Chart
2007 10 8 18 29.1 123.3 1008 0 6 Image Chart
2007 10 9 00 30.5 125.8 1008 0 6 Image Chart
2007 10 9 06 31.5 128.4 1008 0 6 Image Chart
2007 10 9 12 32.1 130.5 1010 0 6 Image Chart
2007 10 9 18 32.9 133.8 1010 0 6 Image Chart
2007 10 10 00 32.4 136.7 1010 0 6 Image Chart
2007 10 10 06 32.1 138.9 1010 0 6 Image Chart
2007 10 10 12 31.9 140.8 1010 0 6 Image Chart
2007 10 10 18 31.9 142.1 1010 0 6 Image Chart
2007 10 11 00 31.8 143.4 1010 0 6 Image Chart
2007 10 11 06 31.8 144.7 1010 0 6 Image Chart
2007 10 11 12 32.1 146.0 1010 0 6 Image Chart
2007 10 11 18 33.0 147.3 1010 0 6 Image Chart
2007 10 12 00 33.9 148.9 1010 0 6 Image Chart
2007 10 12 06 35.3 151.7 1010 0 6 Image Chart
2007 10 12 12 36.5 153.6 1010 0 6 Image Chart
2007 10 12 18 38.3 158.0 1008 0 6 Image Chart
2007 10 13 00 40.2 161.5 1008 0 6 Image Chart
2007 10 13 06 41.6 165.9 1004 0 6 Image Chart
2007 10 13 12 43.8 172.3 1004 0 6 Image Chart
2007 10 13 18 45.3 177.6 1000 0 6 Image Chart
2007 10 14 00 47.1 183.3 1000 0 6 Image Chart
Japan Meteorological Agency Best Track Data | Correction Date : 2007-11-28
< Typhoon 200714 2007 Season Typhoon 200716 >

Help